Drummond Island, MI

7:10 PM EDT on October 25, 2014 (GMT -0400)
Potagannissing Bay Front | Change Station
CLOSE
Current Station
Personal Weather Station
Location: Drummond Island, MI
Elevation: 587 ft
Nearby Weather Stations

Elev 587 ft 46.06 °N, 83.67 °W | Updated 7 minutes ago

Overcast
Overcast
52.3 °F
Feels Like 52.3 °F
N
21.0
Wind Variable Wind from WNW
Gusts 30.0 mph

Today
High -- | Low -- °F
--% Chance of Precip.
Yesterday
High -- | Low -- °F
Precip. -- in
8:05 AM 6:31 PM
Waxing Crescent, 5% visible
Pressure 29.65 in
Visibility 10.0 miles
Clouds Overcast 6000 ft
Dew Point 40 °F
Humidity 63%
Rainfall 0.05 in
Snow Depth Not available.
UV 0 out of 12
Pollen 1.60 out of 12
PM2.5 Good
Flu Activity Sporadic
METAR KDRM 252254Z AUTO 30008G20KT 10SM OVC060 11/02 A2965 RMK AO2 T01110021

More Conditions Fewer Conditions

Pressure 29.65 in
Visibility 10.0 miles
Clouds Overcast 6000 ft
Dew Point 40 °F
Humidity 63%
Rainfall 0.05 in
Snow Depth Not available.
UV 0 out of 12
Pollen 1.60 out of 12
PM2.5 Good
Flu Activity Sporadic
METAR KDRM 252254Z AUTO 30008G20KT 10SM OVC060 11/02 A2965 RMK AO2 T01110021

More Conditions Fewer Conditions

Nowcast | as of 7:00 PM EDT on October 25, 2014

At 8 PM...partly cloudy. Temperature 48. Northwest winds 19 mph. At 10 PM...partly cloudy. Temperature 46. Northwest winds 19 mph with gusts to 30 mph. At 12 am...mostly clear. Temperature 45. Northwest winds 19 mph with gusts to 30 mph. At 2 am...partly cloudy. Temperature 44. Northwest winds 19 mph with gusts to 30 mph.

×

10-Day Weather Forecast

Almanac

Astronomy

Oct. 25, 2014 Rise Set
Actual Time 8:05 AM EDT 6:31 PM EDT
Civil Twilight 7:34 AM EDT 7:02 PM EDT
Nautical Twilight 6:59 AM EDT 7:37 PM EDT
Astronomical Twilight 6:25 AM EDT 8:11 PM EDT
Moon 9:47 AM EDT 7:49 PM EDT
Length of Visible Light 11h 27m
Length of Day
10h 26m
Tomorrow will be 3m 0s shorter.
Waxing Crescent, 5% of the Moon is Illuminated
Today
Waxing Crescent
Oct 30
First Quarter
Nov 6
Full
Nov 14
Last Quarter
Nov 22
New

Today's Extremes

State Highs State Lows

Community

WunderPhotos

Upload Photos

1,765,024 photos uploaded!

Nearby

Air Quality

  Air Quality AQ Index Pollutant
Yesterday Good
PM2.5
Current Good
PM2.5
Saturday Good
PM2.5
Sunday Good
PM2.5
Monday Good
PM2.5

Snow Depth

Station Depth Elevation
No new snow has been reported.

Earthquake Activity

City Distance Mag. Time & Date
No recent earthquake activity has been reported nearby.
Minimum magnitude displayed is 2.5.

Coastal Water Temperatures

Place Temperature
De Tour Village, MI 50.0 °F
Rock Cut, MI 50.0 °F
Little Rapids, MI 52.0 °F
S W Pier, MI 51.1 °F
West Neebish, MI 52.0 °F

Nearby Weather Stations